首页
METAR-TAF:

METAR-TAF

机场 :

Driggs, 爱达荷州, 美国

纬度: 43-44-33N, 经度: 111-05-51W, 海拔: 1899米

当前天气观测

该预报发布于47分钟前的19:56 UTC
静风
温度 27°C
湿度 17%
气压 1021 hPa
能見度: 16.1公里
天空无云

METAR: KDIJ 181956Z AUTO 00000KT 10SM CLR 27/00 A3016 RMK AO2 SLP142 T02670000

时间: 14:43 (20:43 UTC)

预报

该预报发布于3小时和23分钟前的17:20 UTC
预报有效从18日的 18点(UTC)到 19日的 18点(UTC)
风速8节,风向南转西南
能見度: 10公里
少量云层高于18000英尺
从 18日的 2000点(UTC)
风速8节,风向西转西南
能見度: 10公里
少量云层高于18000英尺
从 19日的 0100点(UTC)
风速7节,风向南转南东
能見度: 10公里
天空无云
从 19日的 1700点(UTC)
风速10节,风向南转西南
能見度: 10公里
天空无云

TAF: KDIJ 181720Z 1818/1918 20008KT P6SM FEW180 FM182000 25008KT P6SM FEW180 FM190100 15007KT P6SM SKC FM191700 21010KT P6SM SKC AMD LTD TO CLD VIS AND WIND

超过4000个机场的气象观测和天气预报(METAR&TAF报告)。

可查询的气象台以黄色和红色小点在地图上表示。

将鼠标移到小点上方,可查看气象台名称。

然后点击查看天气观测和预报。

如需切换地图:点击带黑十字的绿色按钮放大地图;点击带横线的绿色按钮缩小地图;或者点击绿色箭头查看邻近地区的地图。


METAR-TAF: